Latest Coastal Weather Observations for Tasman Island

IDT60701

Issued at 9:35 am EST Saturday 23 August 2014 (issued every 10 minutes, with the page automatically refreshed every 10 minutes)

About coastal observations | Map of coastal stations | Coastal observations for TAS | Marine services | Other Formats
Station Details ID: 094155 Name: TASMAN ISLAND Lat: -43.24 Lon: 148.00 Height: 240.0 m
Data from the previous 72 hours. | See also: Recent months at Tasman Island
Date/Time
EST
Temp

°C
Wind Pressure Rain
since 9am
mm
Weather Cloud Vis
km
Sea
Height
m
Swell
Dir
 
Speed
knots
Gust
knots
hPa Trend Height
m
Period
s
Dir
23/09:30am 11.5 N 14 17 1031.3 - 0.0 - - - - - - -
23/09:00am 11.3 N 15 19 1031.9 - 0.0 - - - - - - -
23/08:30am 10.7 N 15 19 1031.3 - 0.0 - - - - - - -
23/08:00am 10.4 N 15 19 1031.8 - 0.0 - - - - - - -
23/07:30am 9.7 N 12 15 1031.3 - 0.0 - - - - - - -
23/07:00am 9.3 N 14 19 1031.3 - 0.0 - - - - - - -
23/06:30am 9.2 N 18 23 1030.6 - 0.0 - - - - - - -
23/06:00am 9.4 N 15 19 1030.7 - 0.0 - - - - - - -
23/05:30am 9.2 N 15 18 1030.3 - 0.0 - - - - - - -
23/05:00am 9.6 N 11 14 1030.7 - 0.0 - - - - - - -
23/04:30am 9.9 N 11 14 1030.2 - 0.0 - - - - - - -
23/04:00am 9.4 N 10 12 1030.6 - 0.0 - - - - - - -
23/03:30am 9.6 N 10 13 1030.3 - 0.0 - - - - - - -
23/03:00am 9.2 N 12 14 1030.8 - 0.0 - - - - - - -
23/02:30am 9.3 N 12 14 1030.6 - 0.0 - - - - - - -
23/02:00am 9.6 N 14 17 1031.3 - 0.0 - - - - - - -
23/01:30am 9.7 N 14 17 1030.9 - 0.0 - - - - - - -
23/01:00am 9.8 N 11 16 1031.3 - 0.0 - - - - - - -
23/12:30am 10.0 N 15 19 1030.9 - 0.0 - - - - - - -
23/12:00am 10.4 N 16 21 1031.5 - 0.0 - - - - - - -
 
Date/Time
EST
Temp

°C
Wind Pressure Rain
since 9am
mm
Weather Cloud Vis
km
Sea
Height
m
Swell
Dir
 
Speed
knots
Gust
knots
hPa Trend Height
m
Period
s
Dir
22/11:30pm 10.4 N 17 22 1031.2 - 0.0 - - - - - - -
22/11:00pm 10.2 N 18 24 1031.9 - 0.0 - - - - - - -
22/10:30pm 10.4 N 17 24 1031.4 - 0.0 - - - - - - -
22/10:00pm 10.4 N 19 25 1032.1 - 0.0 - - - - - - -
22/09:30pm 10.4 N 18 25 1031.7 - 0.0 - - - - - - -
22/09:00pm 10.4 N 21 27 1032.2 - 0.0 - - - - - - -
22/08:30pm 10.3 N 20 26 1031.6 - 0.0 - - - - - - -
22/08:00pm 10.4 N 21 27 1031.9 - 0.0 - - - - - - -
22/07:30pm 10.5 N 21 28 1031.3 - 0.0 - - - - - - -
22/07:00pm 10.8 NNE 19 26 1032.1 - 0.0 - - - - - - -
22/06:30pm 10.6 NNE 19 26 1031.4 - 0.0 - - - - - - -
22/06:00pm 10.5 NNE 20 26 1031.9 - 0.0 - - - - - - -
22/05:30pm 10.5 NNE 19 25 1031.3 - 0.0 - - - - - - -
22/05:00pm 10.7 NNE 21 26 1031.6 - 0.0 - - - - - - -
22/04:30pm 11.1 NNE 20 26 1031.0 - 0.0 - - - - - - -
22/04:00pm 11.0 NNE 19 25 1031.5 - 0.0 - - - - - - -
22/03:30pm 11.1 NNE 19 24 1031.1 - 0.0 - - - - - - -
22/03:00pm 11.7 NNE 20 30 1031.3 - 0.0 - - - - - - -
22/02:30pm 11.8 NNE 22 30 1031.1 - 0.0 - - - - - - -
22/02:00pm 11.6 N 21 28 1031.7 - 0.0 - - - - - - -
22/01:30pm 11.5 N 20 25 1031.4 - 0.0 - - - - - - -
22/01:00pm 12.1 NNE 18 25 1032.1 - 0.0 - - - - - - -
22/12:30pm 12.1 NNE 15 20 1032.1 - 0.0 - - - - - - -
22/12:00pm 11.6 N 16 23 1032.8 - 0.0 - - - - - - -
22/11:30am 12.3 N 18 23 1032.9 - 0.0 - - - - - - -
22/11:00am 11.9 N 18 25 1033.6 - 0.0 - - - - - - -
22/10:30am 11.9 N 17 23 1033.4 - 0.0 - - - - - - -
22/10:00am 11.4 N 18 24 1033.8 - 0.0 - - - - - - -
22/09:30am 10.9 N 15 23 1033.4 - 0.0 - - - - - - -
22/09:00am 10.5 N 15 26 1033.8 - 0.2 - - - - - - -
22/08:57am 10.4 N 15 26 1033.4 - 0.2 - - - - - - -
22/08:30am 10.1 N 18 24 1033.4 - 0.2 - - - - - - -
22/08:00am 9.5 N 15 27 1033.8 - 0.2 - - - - - - -
22/07:30am 9.3 N 15 26 1033.4 - 0.2 - - - - - - -
22/07:00am 8.9 N 15 23 1033.5 - 0.2 - - - - - - -
22/06:30am 8.8 N 19 23 1032.8 - 0.2 - - - - - - -
22/06:00am 8.9 N 16 24 1033.2 - 0.2 - - - - - - -
22/05:30am 9.0 N 16 24 1032.7 - 0.2 - - - - - - -
22/05:17am 9.0 N 15 25 1032.7 - 0.2 - - - - - - -
22/05:00am 9.1 N 19 24 1032.9 - 0.2 - - - - - - -
22/04:30am 9.1 N 21 29 1032.2 - 0.2 - - - - - - -
22/04:00am 9.2 N 22 28 1032.6 - 0.2 - - - - - - -
22/03:30am 9.2 N 24 32 1031.7 - 0.2 - - - - - - -
22/03:00am 9.2 N 23 29 1032.2 - 0.2 - - - - - - -
22/02:30am 9.2 N 22 27 1031.8 - 0.2 - - - - - - -
22/02:00am 9.3 N 22 32 1032.6 - 0.2 - - - - - - -
22/01:30am 9.2 N 20 24 1032.6 - 0.2 - - - - - - -
22/01:00am 9.2 N 18 22 1033.1 - 0.2 - - - - - - -
22/12:30am 9.1 NNE 18 22 1032.7 - 0.2 - - - - - - -
22/12:00am 9.2 N 18 22 1033.1 - 0.2 - - - - - - -
 
Date/Time
EST
Temp

°C
Wind Pressure Rain
since 9am
mm
Weather Cloud Vis
km
Sea
Height
m
Swell
Dir
 
Speed
knots
Gust
knots
hPa Trend Height
m
Period
s
Dir
21/11:30pm 9.5 N 17 20 1032.7 - 0.2 - - - - - - -
21/11:00pm 9.7 NNE 19 23 1033.1 - 0.2 - - - - - - -
21/10:30pm 9.5 NNE 18 24 1032.8 - 0.2 - - - - - - -
21/10:00pm 9.6 NNE 19 23 1033.3 - 0.2 - - - - - - -
21/09:30pm 9.5 NNE 17 23 1032.9 - 0.2 - - - - - - -
21/09:00pm 9.5 NNE 18 22 1033.2 - 0.2 - - - - - - -
21/08:30pm 9.5 NNE 17 24 1032.7 - 0.2 - - - - - - -
21/08:00pm 9.5 NNE 17 22 1033.1 - 0.2 - - - - - - -
21/07:30pm 9.5 NNE 17 20 1032.6 - 0.2 - - - - - - -
21/07:00pm 9.6 NNE 16 20 1032.9 - 0.2 - - - - - - -
21/06:30pm 9.5 NNE 16 20 1032.4 - 0.2 - - - - - - -
21/06:00pm 9.6 NNE 15 21 1032.5 - 0.2 - - - - - - -
21/05:30pm 9.5 NNE 14 20 1031.8 - 0.2 - - - - - - -
21/05:00pm 9.6 NNE 13 17 1032.3 - 0.2 - - - - - - -
21/04:30pm 10.0 NNE 14 18 1031.6 - 0.2 - - - - - - -
21/04:00pm 10.3 NNE 13 17 1031.9 - 0.2 - - - - - - -
21/03:30pm 10.5 NNE 11 15 1031.3 - 0.2 - - - - - - -
21/03:00pm 10.6 NNE 11 14 1031.8 - 0.2 - - - - - - -
21/02:30pm 11.0 NNE 10 12 1031.5 - 0.2 - - - - - - -
21/02:00pm 11.1 NNE 10 12 1032.0 - 0.2 - - - - - - -
21/01:30pm 11.2 NNE 9 12 1031.5 - 0.2 - - - - - - -
21/01:00pm 11.4 NNE 9 13 1032.2 - 0.2 - - - - - - -
21/12:30pm 11.6 NNE 9 12 1032.1 - 0.2 - - - - - - -
21/12:00pm 11.1 NNE 10 12 1032.7 - 0.2 Recent precip. - - - - - -
21/11:30am 11.0 NNE 8 13 1032.6 - 0.0 - - - - - - -
21/11:00am 11.1 NNE 6 10 1033.2 - 0.0 - - - - - - -
21/10:30am 10.5 NNE 8 11 1032.9 - 0.0 - - - - - - -
21/10:00am 10.3 NNE 7 11 1033.3 - 0.0 - - - - - - -
21/09:30am 10.0 NNE 4 7 1033.0 - 0.0 - - - - - - -
21/09:00am 9.6 NNE 7 10 1033.3 - 0.0 - - - - - - -
21/08:30am 8.7 N 5 9 1032.7 - 0.0 - - - - - - -
21/08:00am 8.4 N 4 7 1032.9 - 0.0 - - - - - - -
21/07:30am 8.2 N 3 5 1032.2 - 0.0 - - - - - - -
21/07:00am 8.1 NNE 2 3 1032.2 - 0.0 - - - - - - -
21/06:30am 8.0 N 3 4 1031.3 - 0.0 - - - - - - -
21/06:00am 7.9 NW 1 2 1031.5 - 0.0 - - - - - - -
21/05:30am 7.9 W 3 3 1031.0 - 0.0 - - - - - - -
21/05:00am 8.0 W 3 4 1031.2 - 0.0 - - - - - - -
21/04:30am 7.9 W 3 3 1030.6 - 0.0 - - - - - - -
21/04:00am 8.0 WNW 2 3 1030.7 - 0.0 - - - - - - -
21/03:30am 8.0 W 4 5 1030.1 - 0.0 - - - - - - -
21/03:00am 7.8 NW 2 2 1030.4 - 0.0 - - - - - - -
21/02:30am 7.9 WNW 1 2 1030.0 - 0.0 - - - - - - -
21/02:00am 8.0 NW 2 4 1030.5 - 0.0 - - - - - - -
21/01:30am 7.6 W 2 3 1030.1 - 0.0 - - - - - - -
21/01:00am 8.2 NNW 1 2 1030.5 - 0.0 - - - - - - -
21/12:30am 7.7 WSW 2 4 1030.1 - 0.0 - - - - - - -
21/12:00am 7.7 SSW 3 6 1030.5 - 0.0 - - - - - - -
 
Date/Time
EST
Temp

°C
Wind Pressure Rain
since 9am
mm
Weather Cloud Vis
km
Sea
Height
m
Swell
Dir
 
Speed
knots
Gust
knots
hPa Trend Height
m
Period
s
Dir
20/11:30pm 7.6 SW 4 6 1029.9 - 0.0 - - - - - - -
20/11:00pm 8.3 SSW 4 7 1030.3 - 0.0 - - - - - - -
20/10:30pm 8.5 SSW 6 10 1029.8 - 0.0 - - - - - - -
20/10:00pm 8.6 SSW 5 9 1030.1 - 0.0 - - - - - - -
20/09:30pm 8.5 SSW 5 9 1029.5 - 0.0 - - - - - - -
20/09:00pm 8.5 SSW 6 10 1029.8 - 0.0 - - - - - - -
20/08:30pm 8.0 SSW 6 11 1029.1 - 0.0 - - - - - - -
20/08:00pm 8.2 SSW 6 9 1029.3 - 0.0 - - - - - - -
20/07:30pm 8.1 SSW 6 9 1028.7 - 0.0 - - - - - - -
20/07:00pm 8.3 SSW 8 11 1028.8 - 0.0 - - - - - - -
20/06:30pm 8.1 SSW 7 11 1028.1 - 0.0 - - - - - - -
20/06:00pm 8.3 SSW 9 15 1028.2 - 0.0 - - - - - - -
20/05:30pm 8.3 SSW 8 13 1027.3 - 0.0 - - - - - - -
20/05:00pm 8.6 SSW 10 18 1027.5 - 0.0 - - - - - - -
20/04:30pm 9.1 SW 11 18 1026.8 - 0.0 - - - - - - -
20/04:00pm 9.4 SW 14 20 1026.9 - 0.0 - - - - - - -
20/03:30pm 9.1 SW 13 23 1026.3 - 0.0 - - - - - - -
20/03:00pm 9.1 SW 14 23 1026.5 - 0.0 - - - - - - -
20/02:30pm 9.2 SW 12 22 1025.9 - 0.0 - - - - - - -
20/02:00pm 9.1 SW 5 15 1026.2 - 0.0 - - - - - - -
20/01:30pm 9.2 W 3 11 1025.7 - 0.0 - - - - - - -
20/01:00pm 8.3 WSW 5 14 1026.0 - 0.0 - - - - - - -
20/12:30pm 7.7 W 7 14 1025.7 - 0.0 - - - - - - -
20/12:00pm 8.1 SW 4 10 1026.2 - 0.0 - - - - - - -
20/11:30am 9.3 SW 3 11 1025.9 - 0.0 - - - - - - -
20/11:00am 8.3 NNW 4 16 1026.3 - 0.0 - - - - - - -
20/10:30am 8.0 W 5 14 1025.7 - 0.0 - - - - - - -
20/10:00am 7.8 WNW 4 12 1025.9 - 0.0 - - - - - - -

Other Formats:

Comma delimited format used in spreadsheet applications
http://www.bom.gov.au/fwo/IDT60701/IDT60701.95986.axf

JavaScript Object Notation format (JSON) in row-major order
http://www.bom.gov.au/fwo/IDT60701/IDT60701.95986.json